createdAt,value
2019-04-05T00:01:37.803Z,69.25
2019-04-05T00:04:06.249Z,75.50
2019-04-05T00:06:34.777Z,67.15
2019-04-05T00:09:04.662Z,73.33
2019-04-05T00:11:33.034Z,65.97
2019-04-05T00:14:01.618Z,72.72
2019-04-05T00:16:30.083Z,67.50
2019-04-05T00:18:58.499Z,70.22
2019-04-05T00:21:26.994Z,72.60
2019-04-05T00:23:55.449Z,71.33
2019-04-05T00:26:23.929Z,75.12
2019-04-05T00:28:52.359Z,71.72
2019-04-05T00:31:20.854Z,78.92
2019-04-05T00:33:49.321Z,72.75
2019-04-05T00:36:17.791Z,75.55
2019-04-05T00:38:46.262Z,73.75
2019-04-05T00:41:14.686Z,79.03
2019-04-05T00:43:43.185Z,73.62
2019-04-05T00:46:11.642Z,82.60
2019-04-05T00:48:40.131Z,68.52
2019-04-05T00:51:08.602Z,81.23
2019-04-05T00:53:37.022Z,76.77
2019-04-05T00:56:05.631Z,85.67
2019-04-05T00:58:34.100Z,82.67
2019-04-05T01:01:02.529Z,87.00
2019-04-05T01:03:31.003Z,87.05
2019-04-05T01:05:59.429Z,70.23
2019-04-05T01:08:27.898Z,86.42
2019-04-05T01:10:56.354Z,93.35
2019-04-05T01:13:25.600Z,80.70
2019-04-05T01:15:54.062Z,92.85
2019-04-05T01:18:22.489Z,85.75
2019-04-05T01:20:53.840Z,90.15
2019-04-05T01:23:23.150Z,87.17
2019-04-05T01:25:53.852Z,89.67
2019-04-05T01:28:23.150Z,81.25
2019-04-05T01:30:51.590Z,91.90
2019-04-05T01:33:20.187Z,84.45
2019-04-05T01:35:48.623Z,90.70
2019-04-05T01:38:17.645Z,91.43
2019-04-05T01:40:47.456Z,92.05
2019-04-05T01:43:16.452Z,92.90
2019-04-05T01:45:53.531Z,91.50
2019-04-05T01:48:16.840Z,95.07
2019-04-05T01:50:45.308Z,91.63
2019-04-05T01:53:13.834Z,91.45
2019-04-05T01:55:42.270Z,94.70
2019-04-05T01:58:10.746Z,83.95
2019-04-05T02:00:39.170Z,93.60
2019-04-05T02:03:07.637Z,92.10
2019-04-05T02:05:36.170Z,90.67
2019-04-05T02:08:05.127Z,90.77
2019-04-05T02:10:33.597Z,88.62
2019-04-05T02:13:02.041Z,81.70
2019-04-05T02:15:33.640Z,81.20
2019-04-05T02:18:02.099Z,90.23
2019-04-05T02:20:30.616Z,91.17
2019-04-05T02:22:59.179Z,72.67
2019-04-05T02:25:27.792Z,78.85
2019-04-05T02:27:56.344Z,84.97
2019-04-05T02:30:25.446Z,86.42
2019-04-05T02:32:53.968Z,83.70
2019-04-05T02:35:22.382Z,83.67
2019-04-05T02:37:50.873Z,83.27
2019-04-05T02:40:21.214Z,88.05
2019-04-05T02:42:52.510Z,90.42
2019-04-05T02:45:21.510Z,82.05
2019-04-05T02:47:52.990Z,87.72
2019-04-05T02:50:24.526Z,82.22
2019-04-05T02:52:56.066Z,85.53
2019-04-05T02:55:26.156Z,72.27
2019-04-05T03:00:23.698Z,81.78
2019-04-05T03:02:53.090Z,79.97
2019-04-05T03:05:23.467Z,84.20
2019-04-05T03:07:52.443Z,85.12
2019-04-05T03:10:52.426Z,88.55
2019-04-05T03:13:23.109Z,86.50
2019-04-05T03:15:53.492Z,86.65
2019-04-05T03:18:25.199Z,88.62
2019-04-05T03:20:57.726Z,86.82
2019-04-05T03:23:27.083Z,84.50
2019-04-05T03:25:58.867Z,79.37
2019-04-05T03:28:28.431Z,83.03
2019-04-05T03:30:57.246Z,88.33
2019-04-05T03:33:25.757Z,85.77
2019-04-05T03:35:54.936Z,82.88
2019-04-05T03:38:24.715Z,79.60
2019-04-05T03:40:54.224Z,83.98
2019-04-05T03:43:22.733Z,75.72
2019-04-05T03:45:51.536Z,77.00
2019-04-05T03:48:20.045Z,79.53
2019-04-05T03:50:48.551Z,76.25
2019-04-05T03:53:16.988Z,78.80
2019-04-05T03:55:45.939Z,78.15
2019-04-05T03:58:14.355Z,76.47
2019-04-05T04:00:43.168Z,79.10
2019-04-05T04:03:11.594Z,76.77
2019-04-05T04:05:40.194Z,78.28
2019-04-05T04:08:08.654Z,77.80
2019-04-05T04:10:37.073Z,75.85
2019-04-05T04:13:05.781Z,73.12
2019-04-05T04:15:34.386Z,80.12
2019-04-05T04:18:04.859Z,70.95
2019-04-05T04:23:10.241Z,81.82
2019-04-05T04:25:40.736Z,80.20
2019-04-05T04:28:10.314Z,85.40
2019-04-05T04:30:39.148Z,82.00
2019-04-05T04:33:07.583Z,86.72
2019-04-05T04:35:36.357Z,89.55
2019-04-05T04:38:05.752Z,83.60
2019-04-05T04:40:34.341Z,88.45
2019-04-05T04:43:03.119Z,83.27
2019-04-05T04:45:32.707Z,83.40
2019-04-05T04:48:01.727Z,89.62
2019-04-05T04:50:31.289Z,86.12
2019-04-05T04:53:00.446Z,88.17
2019-04-05T04:55:29.382Z,86.12
2019-04-05T04:57:57.875Z,85.42
2019-04-05T05:00:27.152Z,88.67
2019-04-05T05:02:55.659Z,88.93
2019-04-05T05:05:24.625Z,87.30
2019-04-05T05:07:53.544Z,81.10
2019-04-05T05:10:22.631Z,86.28
2019-04-05T05:12:51.420Z,84.75
2019-04-05T05:15:20.949Z,82.47
2019-04-05T05:17:58.509Z,90.67
2019-04-05T05:20:20.676Z,81.00
2019-04-05T05:22:49.261Z,82.08
2019-04-05T05:25:17.847Z,87.72
2019-04-05T05:27:47.311Z,80.50
2019-04-05T05:30:15.813Z,86.40
2019-04-05T05:32:44.465Z,86.12
2019-04-05T05:35:13.165Z,79.87
2019-04-05T05:37:41.909Z,93.05
2019-04-05T05:40:11.369Z,87.78
2019-04-05T05:42:39.809Z,74.23
2019-04-05T05:45:09.789Z,85.90
2019-04-05T05:47:50.641Z,86.85
2019-04-05T05:50:08.693Z,89.25
2019-04-05T05:52:37.392Z,90.60
2019-04-05T05:55:06.888Z,82.35
2019-04-05T05:57:35.322Z,78.27
2019-04-05T06:00:06.014Z,85.15
2019-04-05T06:02:38.378Z,87.82
2019-04-05T06:05:06.477Z,86.60
2019-04-05T06:07:34.933Z,87.17
2019-04-05T06:10:05.436Z,89.75
2019-04-05T06:12:33.874Z,89.72
2019-04-05T06:15:02.395Z,88.62
2019-04-05T06:17:30.948Z,94.83
2019-04-05T06:19:59.430Z,90.00
2019-04-05T06:22:27.902Z,94.97
2019-04-05T06:24:56.350Z,92.08
2019-04-05T06:27:25.586Z,91.78
2019-04-05T06:29:54.064Z,91.67
2019-04-05T06:32:22.518Z,89.92
2019-04-05T06:34:50.969Z,91.87
2019-04-05T06:37:19.430Z,90.22
2019-04-05T06:39:53.627Z,85.67
2019-04-05T06:42:27.136Z,92.22
2019-04-05T06:44:55.620Z,82.95
2019-04-05T06:47:24.065Z,81.67
2019-04-05T06:49:55.078Z,82.78
2019-04-05T06:52:23.528Z,85.95
2019-04-05T06:54:51.973Z,83.47
2019-04-05T06:57:20.473Z,84.58
2019-04-05T06:59:48.932Z,76.35
2019-04-05T07:02:18.535Z,77.00
2019-04-05T07:04:47.019Z,72.67
2019-04-05T07:07:17.882Z,79.35
2019-04-05T07:09:45.617Z,77.62
2019-04-05T07:12:14.076Z,70.47
2019-04-05T07:14:42.510Z,77.50
2019-04-05T07:17:10.946Z,73.07
2019-04-05T07:19:39.380Z,80.92
2019-04-05T07:22:07.828Z,69.50
2019-04-05T07:24:36.256Z,77.00
2019-04-05T07:27:04.749Z,76.30
2019-04-05T07:29:33.177Z,77.12
2019-04-05T07:32:01.612Z,81.00
2019-04-05T07:34:30.051Z,79.92
2019-04-05T07:36:58.494Z,77.35
2019-04-05T07:39:26.938Z,80.05
2019-04-05T07:41:55.378Z,76.95
2019-04-05T07:44:23.813Z,75.42
2019-04-05T07:46:52.275Z,79.40
2019-04-05T07:49:20.705Z,80.12
2019-04-05T07:51:49.142Z,74.47
2019-04-05T07:54:17.572Z,78.22
2019-04-05T07:56:46.419Z,76.33
2019-04-05T07:59:14.932Z,73.30
2019-04-05T08:01:43.382Z,81.20
2019-04-05T08:04:11.814Z,77.55
2019-04-05T08:06:43.054Z,70.15
2019-04-05T08:09:14.114Z,80.32
2019-04-05T08:11:44.393Z,72.85
2019-04-05T08:14:13.996Z,74.47
2019-04-05T08:16:42.428Z,78.10
2019-04-05T08:19:10.865Z,75.85
2019-04-05T08:21:39.314Z,79.53
2019-04-05T08:24:07.799Z,76.67
2019-04-05T08:26:36.234Z,76.35
2019-04-05T08:29:05.205Z,73.72
2019-04-05T08:31:33.659Z,74.87
2019-04-05T08:34:02.074Z,76.15
2019-04-05T08:36:32.739Z,75.85
2019-04-05T08:39:00.668Z,77.90
2019-04-05T08:41:29.139Z,77.30
2019-04-05T08:43:57.565Z,77.10
2019-04-05T08:46:26.428Z,74.37
2019-04-05T08:48:54.831Z,74.70
2019-04-05T08:51:23.267Z,77.90
2019-04-05T08:53:51.703Z,73.30
2019-04-05T08:56:20.151Z,74.58
2019-04-05T08:58:48.598Z,74.87
2019-04-05T09:01:17.034Z,71.95
2019-04-05T09:03:45.474Z,72.47
2019-04-05T09:06:13.904Z,73.00
2019-04-05T09:08:42.363Z,69.82
2019-04-05T09:11:10.823Z,72.67
2019-04-05T09:13:39.265Z,71.70
2019-04-05T09:16:07.775Z,71.87
2019-04-05T09:18:36.207Z,75.28
2019-04-05T09:21:04.643Z,76.07
2019-04-05T09:23:33.085Z,74.25
2019-04-05T09:26:01.512Z,78.77
2019-04-05T09:28:29.951Z,76.80
2019-04-05T09:30:58.400Z,79.95
2019-04-05T09:33:26.813Z,77.60
2019-04-05T09:35:55.315Z,78.35
2019-04-05T09:38:23.742Z,79.05
2019-04-05T09:40:52.178Z,75.62
2019-04-05T09:43:20.634Z,78.75
2019-04-05T09:45:49.079Z,73.57
2019-04-05T09:48:17.507Z,74.80
2019-04-05T09:50:45.952Z,72.92
2019-04-05T09:53:14.391Z,74.82
2019-04-05T09:55:42.817Z,77.50
2019-04-05T09:58:11.255Z,75.90
2019-04-05T10:00:39.991Z,79.10
2019-04-05T10:03:08.414Z,73.50
2019-04-05T10:05:36.874Z,75.92
2019-04-05T10:08:05.321Z,78.47
2019-04-05T10:10:33.741Z,77.17
2019-04-05T10:13:02.183Z,77.53
2019-04-05T10:15:30.612Z,78.28
2019-04-05T10:17:59.087Z,74.80
2019-04-05T10:20:27.546Z,75.75
2019-04-05T10:22:55.995Z,76.80
2019-04-05T10:25:24.449Z,75.47
2019-04-05T10:27:53.184Z,77.95
2019-04-05T10:30:21.771Z,78.47
2019-04-05T10:32:50.208Z,73.07
2019-04-05T10:35:18.642Z,74.12
2019-04-05T10:37:47.083Z,74.07
2019-04-05T10:40:15.706Z,76.65
2019-04-05T10:42:44.160Z,75.60
2019-04-05T10:45:12.852Z,76.20
2019-04-05T10:47:41.347Z,77.60
2019-04-05T10:50:12.759Z,74.37
2019-04-05T10:52:41.276Z,71.57
2019-04-05T10:55:10.876Z,70.22
2019-04-05T10:57:39.324Z,71.57
2019-04-05T11:00:11.136Z,72.90
2019-04-05T11:02:39.575Z,68.47
2019-04-05T11:05:08.033Z,73.05
2019-04-05T11:07:36.508Z,71.25
2019-04-05T11:10:07.135Z,69.58
2019-04-05T11:12:35.563Z,72.40
2019-04-05T11:15:06.363Z,71.90
2019-04-05T11:17:34.814Z,71.07
2019-04-05T11:20:20.128Z,73.57
2019-04-05T11:22:34.857Z,71.10
2019-04-05T11:25:03.644Z,74.12
2019-04-05T11:27:32.086Z,70.52
2019-04-05T11:30:00.529Z,67.32
2019-04-05T11:32:28.990Z,66.70
2019-04-05T11:34:57.487Z,67.17
2019-04-05T11:37:27.006Z,69.03
2019-04-05T11:39:55.731Z,66.82
2019-04-05T11:42:25.943Z,68.72
2019-04-05T11:44:56.713Z,71.25
2019-04-05T11:47:25.155Z,67.40
2019-04-05T11:49:55.251Z,69.47
2019-04-05T11:52:23.724Z,69.53
2019-04-05T11:54:52.158Z,72.05
2019-04-05T11:57:20.606Z,67.73
2019-04-05T11:59:49.295Z,69.40
2019-04-05T12:02:19.597Z,69.50
2019-04-05T12:04:48.073Z,71.70
2019-04-05T12:07:16.504Z,73.47
2019-04-05T12:09:45.970Z,72.40
2019-04-05T12:12:15.236Z,71.28
2019-04-05T12:14:43.707Z,72.87
2019-04-05T12:17:12.315Z,73.15
2019-04-05T12:19:40.763Z,69.37
2019-04-05T12:22:09.411Z,69.70
2019-04-05T12:24:38.200Z,75.03
2019-04-05T12:27:06.671Z,73.27
2019-04-05T12:29:35.101Z,74.40
2019-04-05T12:32:03.557Z,70.80
2019-04-05T12:34:31.983Z,75.15
2019-04-05T12:37:00.428Z,74.95
2019-04-05T12:39:28.855Z,73.15
2019-04-05T12:41:57.308Z,68.67
2019-04-05T12:44:25.761Z,66.10
2019-04-05T12:46:54.198Z,67.58
2019-04-05T12:49:22.662Z,64.92
2019-04-05T12:51:51.109Z,66.10
2019-04-05T12:54:19.543Z,63.17
2019-04-05T12:56:47.986Z,67.25
2019-04-05T12:59:16.484Z,65.65
2019-04-05T13:01:45.642Z,68.85
2019-04-05T13:04:15.014Z,69.67
2019-04-05T13:06:43.529Z,73.65
2019-04-05T13:09:13.025Z,69.85
2019-04-05T13:11:41.704Z,69.07
2019-04-05T13:14:10.130Z,69.65
2019-04-05T13:16:38.578Z,71.82
2019-04-05T13:19:07.006Z,67.97
2019-04-05T13:21:35.453Z,69.60
2019-04-05T13:24:06.875Z,67.12
2019-04-05T13:26:36.832Z,69.30
2019-04-05T13:29:04.927Z,70.65
2019-04-05T13:31:33.357Z,69.20
2019-04-05T13:34:01.823Z,72.65
2019-04-05T13:36:30.324Z,68.80
2019-04-05T13:39:00.326Z,69.67
2019-04-05T13:41:31.395Z,68.95
2019-04-05T13:44:01.215Z,72.15
2019-04-05T13:48:56.993Z,66.92
2019-04-05T13:51:28.587Z,68.42
2019-04-05T13:53:55.653Z,71.37
2019-04-05T13:56:24.090Z,74.42
2019-04-05T13:58:52.523Z,78.55
2019-04-05T14:01:21.389Z,78.12
2019-04-05T14:03:50.719Z,87.27
2019-04-05T14:06:19.408Z,90.62
2019-04-05T14:08:47.837Z,95.77
2019-04-05T14:11:16.275Z,98.30
2019-04-05T14:13:44.731Z,94.72
2019-04-05T14:16:13.269Z,91.93
2019-04-05T14:18:49.426Z,89.45
2019-04-05T14:21:12.896Z,80.37
2019-04-05T14:23:41.340Z,74.87
2019-04-05T14:26:09.780Z,74.90
2019-04-05T14:28:38.235Z,74.95
2019-04-05T14:31:06.671Z,74.45
2019-04-05T14:33:35.131Z,76.60
2019-04-05T14:36:03.566Z,75.60
2019-04-05T14:38:32.003Z,76.55
2019-04-05T14:41:00.442Z,74.67
2019-04-05T14:43:28.913Z,77.75
2019-04-05T14:45:57.426Z,78.15
2019-04-05T14:48:28.107Z,78.87
2019-04-05T14:50:57.969Z,77.53
2019-04-05T14:53:26.185Z,79.05
2019-04-05T14:55:59.025Z,81.68
2019-04-05T14:58:26.728Z,80.65
2019-04-05T15:00:55.168Z,78.67
2019-04-05T15:03:23.617Z,77.65
2019-04-05T15:05:52.195Z,79.53
2019-04-05T15:08:21.211Z,78.12
2019-04-05T15:10:51.379Z,78.80
2019-04-05T15:13:20.107Z,78.45
2019-04-05T15:15:48.578Z,75.72
2019-04-05T15:18:19.373Z,76.57
2019-04-05T15:20:47.178Z,75.50
2019-04-05T15:23:15.633Z,85.85
2019-04-05T15:25:44.087Z,86.00
2019-04-05T15:28:12.526Z,84.00
2019-04-05T15:30:41.008Z,88.03
2019-04-05T15:33:09.429Z,88.52
2019-04-05T15:35:37.870Z,91.60
2019-04-05T15:38:06.328Z,86.20
2019-04-05T15:40:35.038Z,88.22
2019-04-05T15:43:03.793Z,86.63
2019-04-05T15:45:32.242Z,87.78
2019-04-05T15:48:00.681Z,88.25
2019-04-05T15:50:29.169Z,88.90
2019-04-05T15:53:01.904Z,84.47
2019-04-05T15:55:27.765Z,83.60
2019-04-05T15:57:56.316Z,86.37
2019-04-05T16:00:31.661Z,89.22
2019-04-05T16:03:02.552Z,85.72
2019-04-05T16:05:30.817Z,82.72
2019-04-05T16:07:59.251Z,82.37
2019-04-05T16:10:27.688Z,80.83
2019-04-05T16:12:56.127Z,73.92
2019-04-05T16:15:24.560Z,74.10
2019-04-05T16:17:52.998Z,72.80
2019-04-05T16:20:21.506Z,75.08
2019-04-05T16:22:49.939Z,75.55
2019-04-05T16:25:18.376Z,77.45
2019-04-05T16:27:46.809Z,72.92
2019-04-05T16:30:15.510Z,74.65
2019-04-05T16:32:43.953Z,80.32
2019-04-05T16:35:14.640Z,87.55
2019-04-05T16:37:42.732Z,89.92
2019-04-05T16:40:11.726Z,88.03
2019-04-05T16:42:40.170Z,87.83
2019-04-05T16:45:10.507Z,84.10
2019-04-05T16:47:38.945Z,86.37
2019-04-05T16:50:08.421Z,77.82
2019-04-05T16:52:44.687Z,80.93
2019-04-05T16:55:07.358Z,81.42
2019-04-05T16:57:35.825Z,90.47
2019-04-05T17:00:07.734Z,80.38
2019-04-05T17:02:36.236Z,80.12
2019-04-05T17:05:06.793Z,77.70
2019-04-05T17:07:35.230Z,74.90
2019-04-05T17:10:04.704Z,72.97
2019-04-05T17:12:33.164Z,76.10
2019-04-05T17:15:01.608Z,77.78
2019-04-05T17:17:30.086Z,69.30
2019-04-05T17:19:58.543Z,70.47
2019-04-05T17:22:26.994Z,63.15
2019-04-05T17:24:55.506Z,64.05
2019-04-05T17:27:24.720Z,62.55
2019-04-05T17:29:54.686Z,65.72
2019-04-05T17:32:23.140Z,66.40
2019-04-05T17:34:51.611Z,63.28
2019-04-05T17:37:20.144Z,61.55
2019-04-05T17:39:48.574Z,59.88
2019-04-05T17:42:17.432Z,60.25
2019-04-05T17:44:45.846Z,61.23
2019-04-05T17:47:14.369Z,61.02
2019-04-05T17:49:42.837Z,56.83
2019-04-05T17:52:11.346Z,59.42
2019-04-05T17:54:39.796Z,57.17
2019-04-05T17:57:08.224Z,63.45
2019-04-05T17:59:38.085Z,58.10
2019-04-05T18:02:06.716Z,59.13
2019-04-05T18:04:37.404Z,58.83
2019-04-05T18:07:05.867Z,59.55
2019-04-05T18:09:34.376Z,51.77
2019-04-05T18:12:02.874Z,58.68
2019-04-05T18:14:31.345Z,60.17
2019-04-05T18:16:59.789Z,58.80
2019-04-05T18:19:28.261Z,57.90
2019-04-05T18:21:56.698Z,56.18
2019-04-05T18:24:25.131Z,60.12
2019-04-05T18:26:53.577Z,57.13
2019-04-05T18:29:22.006Z,61.20
2019-04-05T18:31:50.463Z,58.08
2019-04-05T18:34:18.899Z,57.20
2019-04-05T18:36:48.535Z,57.08
2019-04-05T18:39:16.967Z,58.53
2019-04-05T18:41:45.428Z,55.40
2019-04-05T18:44:13.855Z,54.35
2019-04-05T18:46:43.105Z,53.57
2019-04-05T18:49:11.559Z,56.25
2019-04-05T18:51:39.980Z,54.42
2019-04-05T18:54:08.405Z,53.15
2019-04-05T18:56:36.851Z,57.70
2019-04-05T18:59:05.319Z,56.33
2019-04-05T19:01:33.756Z,56.73
2019-04-05T19:04:05.240Z,62.55
2019-04-05T19:06:32.408Z,64.82
2019-04-05T19:09:00.857Z,62.70
2019-04-05T19:11:29.317Z,63.23
2019-04-05T19:14:01.324Z,63.68
2019-04-05T19:16:27.919Z,65.92
2019-04-05T19:18:56.375Z,59.42
2019-04-05T19:21:24.816Z,59.05
2019-04-05T19:23:53.256Z,56.40
2019-04-05T19:26:21.698Z,58.80
2019-04-05T19:28:50.127Z,56.40
2019-04-05T19:48:49.903Z,59.42
2019-04-05T19:51:18.362Z,57.93
2019-04-05T19:53:46.784Z,57.23
2019-04-05T19:56:15.241Z,56.33
2019-04-05T19:58:43.666Z,56.85
2019-04-05T20:01:13.656Z,58.83
2019-04-05T20:03:42.102Z,57.75
2019-04-05T20:06:10.568Z,58.57
2019-04-05T20:08:38.998Z,59.35
2019-04-05T20:11:07.552Z,59.97
2019-04-05T20:13:35.972Z,60.58
2019-04-05T20:16:04.685Z,58.27
2019-04-05T20:18:33.117Z,58.63
2019-04-05T20:21:01.555Z,60.00
2019-04-05T20:23:30.010Z,59.65
2019-04-05T20:25:58.439Z,62.70
2019-04-05T20:28:26.902Z,62.03
2019-04-05T20:30:55.337Z,62.25
2019-04-05T20:33:23.767Z,61.60
2019-04-05T20:35:52.216Z,60.23
2019-04-05T20:38:20.677Z,59.63
2019-04-05T20:40:49.124Z,60.78
2019-04-05T20:43:17.588Z,61.02
2019-04-05T20:45:46.011Z,60.55
2019-04-05T20:48:14.444Z,62.70
2019-04-05T20:50:42.881Z,59.55
2019-04-05T20:53:11.319Z,62.50
2019-04-05T20:55:39.777Z,63.80
2019-04-05T20:58:08.218Z,61.60
2019-04-05T21:00:36.686Z,63.60
2019-04-05T21:03:05.132Z,61.58
2019-04-05T21:05:33.583Z,63.30
2019-04-05T21:08:02.028Z,64.22
2019-04-05T21:10:30.522Z,61.40
2019-04-05T21:12:58.991Z,62.75
2019-04-05T21:15:27.431Z,58.52
2019-04-05T21:17:55.844Z,61.88
2019-04-05T21:20:24.335Z,58.83
2019-04-05T21:22:52.795Z,59.70
2019-04-05T21:25:21.249Z,58.08
2019-04-05T21:27:49.715Z,62.03
2019-04-05T21:30:18.917Z,60.17
2019-04-05T21:32:47.372Z,62.40
2019-04-05T21:35:15.819Z,62.23
2019-04-05T21:37:44.303Z,62.90
2019-04-05T21:40:12.832Z,61.65
2019-04-05T21:42:41.267Z,63.45
2019-04-05T21:45:10.070Z,61.18
2019-04-05T21:47:38.507Z,66.45
2019-04-05T21:50:09.778Z,61.33
2019-04-05T21:52:38.244Z,65.08
2019-04-05T21:55:08.125Z,61.37
2019-04-05T21:57:36.649Z,61.25
2019-04-05T22:00:24.628Z,61.33
2019-04-05T22:02:53.176Z,62.60
2019-04-05T22:05:21.631Z,55.38
2019-04-05T22:07:51.627Z,59.60
2019-04-05T22:10:20.290Z,81.20
2019-04-05T22:12:49.806Z,68.95
2019-04-05T22:15:18.290Z,71.17
2019-04-05T22:17:46.795Z,62.08
2019-04-05T22:20:15.534Z,62.00
2019-04-05T22:22:44.431Z,64.27
2019-04-05T22:25:13.003Z,64.55
2019-04-05T22:27:41.426Z,58.80
2019-04-05T22:30:10.353Z,63.78
2019-04-05T22:32:38.823Z,60.10
2019-04-05T22:35:07.524Z,55.43
2019-04-05T22:37:36.014Z,61.60
2019-04-05T22:40:06.516Z,63.55
2019-04-05T22:42:34.991Z,61.88
2019-04-05T22:45:04.255Z,61.02
2019-04-05T22:47:32.758Z,62.90
2019-04-05T22:50:01.221Z,60.67
2019-04-05T22:52:29.658Z,60.35
2019-04-05T22:54:58.095Z,63.15
2019-04-05T22:57:26.569Z,65.35
2019-04-05T22:59:55.006Z,65.55
2019-04-05T23:02:23.448Z,64.12
2019-04-05T23:04:51.928Z,63.78
2019-04-05T23:07:20.357Z,62.80
2019-04-05T23:09:48.845Z,64.92
2019-04-05T23:12:17.354Z,63.42
2019-04-05T23:14:45.729Z,62.27
2019-04-05T23:17:14.207Z,57.33
2019-04-05T23:19:42.681Z,54.80
2019-04-05T23:22:11.097Z,68.22
2019-04-05T23:24:39.604Z,63.45
2019-04-05T23:27:08.140Z,53.80
2019-04-05T23:29:36.613Z,61.92
2019-04-05T23:32:05.087Z,63.92
2019-04-05T23:34:33.569Z,61.45
2019-04-05T23:37:01.997Z,60.55
2019-04-05T23:39:30.472Z,63.65
2019-04-05T23:41:58.943Z,60.67
2019-04-05T23:44:27.370Z,63.15
2019-04-05T23:46:55.805Z,62.15
2019-04-05T23:49:24.234Z,65.62
2019-04-05T23:51:52.741Z,67.45
2019-04-05T23:54:21.162Z,67.35
2019-04-05T23:56:49.597Z,68.22
2019-04-05T23:59:18.085Z,65.67
